sensor_id;sensor_type;location;lat;lon;timestamp;P1;durP1;ratioP1;P2;durP2;ratioP2
12745;SDS011;6437;53.686;10.030;2023-04-03T00:00:57;9.90;;;0.68;;
12745;SDS011;6437;53.686;10.030;2023-04-03T00:02:59;5.43;;;0.80;;
12745;SDS011;6437;53.686;10.030;2023-04-03T00:05:01;10.10;;;0.50;;
12745;SDS011;6437;53.686;10.030;2023-04-03T00:07:04;14.88;;;0.68;;
12745;SDS011;6437;53.686;10.030;2023-04-03T00:09:06;4.63;;;0.70;;
12745;SDS011;6437;53.686;10.030;2023-04-03T00:11:08;9.10;;;0.52;;
12745;SDS011;6437;53.686;10.030;2023-04-03T00:13:10;7.70;;;1.13;;
12745;SDS011;6437;53.686;10.030;2023-04-03T00:17:16;6.00;;;0.73;;
12745;SDS011;6437;53.686;10.030;2023-04-03T00:19:17;3.88;;;0.35;;
12745;SDS011;6437;53.686;10.030;2023-04-03T00:21:19;10.57;;;0.68;;
12745;SDS011;6437;53.686;10.030;2023-04-03T00:23:21;16.92;;;1.00;;
12745;SDS011;6437;53.686;10.030;2023-04-03T00:27:25;9.63;;;0.77;;
12745;SDS011;6437;53.686;10.030;2023-04-03T00:29:27;9.93;;;0.90;;
12745;SDS011;6437;53.686;10.030;2023-04-03T00:31:32;6.90;;;0.60;;
12745;SDS011;6437;53.686;10.030;2023-04-03T00:33:34;3.45;;;0.40;;
12745;SDS011;6437;53.686;10.030;2023-04-03T00:35:36;13.27;;;0.70;;
12745;SDS011;6437;53.686;10.030;2023-04-03T00:39:40;9.40;;;0.50;;
12745;SDS011;6437;53.686;10.030;2023-04-03T00:41:42;6.15;;;0.40;;
12745;SDS011;6437;53.686;10.030;2023-04-03T00:43:44;5.15;;;0.68;;
12745;SDS011;6437;53.686;10.030;2023-04-03T00:47:50;11.75;;;0.50;;
12745;SDS011;6437;53.686;10.030;2023-04-03T00:49:52;6.93;;;1.10;;
12745;SDS011;6437;53.686;10.030;2023-04-03T00:52:13;8.38;;;0.93;;
12745;SDS011;6437;53.686;10.030;2023-04-03T00:54:19;10.13;;;0.85;;
12745;SDS011;6437;53.686;10.030;2023-04-03T00:56:21;3.67;;;0.40;;
12745;SDS011;6437;53.686;10.030;2023-04-03T00:58:28;7.72;;;0.98;;
12745;SDS011;6437;53.686;10.030;2023-04-03T01:00:35;5.97;;;0.45;;
12745;SDS011;6437;53.686;10.030;2023-04-03T01:02:39;9.35;;;0.50;;
12745;SDS011;6437;53.686;10.030;2023-04-03T01:04:43;10.30;;;0.82;;
12745;SDS011;6437;53.686;10.030;2023-04-03T01:06:47;8.82;;;0.90;;
12745;SDS011;6437;53.686;10.030;2023-04-03T01:08:49;6.25;;;0.60;;
12745;SDS011;6437;53.686;10.030;2023-04-03T01:10:51;8.00;;;0.45;;
12745;SDS011;6437;53.686;10.030;2023-04-03T01:12:53;6.70;;;0.43;;
12745;SDS011;6437;53.686;10.030;2023-04-03T01:14:56;10.82;;;0.77;;
12745;SDS011;6437;53.686;10.030;2023-04-03T01:16:59;4.53;;;0.65;;
12745;SDS011;6437;53.686;10.030;2023-04-03T01:19:02;6.43;;;0.50;;
12745;SDS011;6437;53.686;10.030;2023-04-03T01:21:17;8.55;;;0.95;;
12745;SDS011;6437;53.686;10.030;2023-04-03T01:25:50;3.90;;;0.57;;
12745;SDS011;6437;53.686;10.030;2023-04-03T01:27:54;4.40;;;0.65;;
12745;SDS011;6437;53.686;10.030;2023-04-03T01:29:56;5.38;;;0.38;;
12745;SDS011;6437;53.686;10.030;2023-04-03T01:32:01;4.82;;;0.60;;
12745;SDS011;6437;53.686;10.030;2023-04-03T01:34:04;4.38;;;0.60;;
12745;SDS011;6437;53.686;10.030;2023-04-03T01:36:06;4.57;;;0.40;;
12745;SDS011;6437;53.686;10.030;2023-04-03T01:38:09;13.90;;;0.65;;
12745;SDS011;6437;53.686;10.030;2023-04-03T01:40:11;11.02;;;0.50;;
12745;SDS011;6437;53.686;10.030;2023-04-03T01:42:13;6.65;;;0.70;;
12745;SDS011;6437;53.686;10.030;2023-04-03T01:44:16;7.43;;;0.40;;
12745;SDS011;6437;53.686;10.030;2023-04-03T01:46:18;13.32;;;1.17;;
12745;SDS011;6437;53.686;10.030;2023-04-03T01:48:22;6.15;;;0.50;;
12745;SDS011;6437;53.686;10.030;2023-04-03T01:50:24;6.47;;;0.60;;
12745;SDS011;6437;53.686;10.030;2023-04-03T01:52:26;6.05;;;0.57;;
12745;SDS011;6437;53.686;10.030;2023-04-03T01:54:28;7.30;;;0.40;;
12745;SDS011;6437;53.686;10.030;2023-04-03T01:56:30;7.32;;;0.80;;
12745;SDS011;6437;53.686;10.030;2023-04-03T01:58:32;6.72;;;0.77;;
12745;SDS011;6437;53.686;10.030;2023-04-03T02:00:34;6.88;;;1.02;;
12745;SDS011;6437;53.686;10.030;2023-04-03T02:02:36;6.32;;;0.30;;
12745;SDS011;6437;53.686;10.030;2023-04-03T02:04:39;10.02;;;0.85;;
12745;SDS011;6437;53.686;10.030;2023-04-03T02:06:41;7.85;;;0.70;;
12745;SDS011;6437;53.686;10.030;2023-04-03T02:08:43;6.57;;;0.88;;
12745;SDS011;6437;53.686;10.030;2023-04-03T02:10:46;4.75;;;0.45;;
12745;SDS011;6437;53.686;10.030;2023-04-03T02:12:49;11.30;;;0.70;;
12745;SDS011;6437;53.686;10.030;2023-04-03T02:14:51;7.40;;;1.00;;
12745;SDS011;6437;53.686;10.030;2023-04-03T02:16:53;5.18;;;0.43;;
12745;SDS011;6437;53.686;10.030;2023-04-03T02:20:58;9.18;;;0.43;;
12745;SDS011;6437;53.686;10.030;2023-04-03T02:23:00;10.93;;;0.47;;
12745;SDS011;6437;53.686;10.030;2023-04-03T02:25:02;9.73;;;0.85;;
12745;SDS011;6437;53.686;10.030;2023-04-03T02:27:05;8.10;;;0.73;;
12745;SDS011;6437;53.686;10.030;2023-04-03T02:29:07;7.05;;;0.52;;
12745;SDS011;6437;53.686;10.030;2023-04-03T02:31:09;7.75;;;1.35;;
12745;SDS011;6437;53.686;10.030;2023-04-03T02:35:12;8.25;;;0.47;;
12745;SDS011;6437;53.686;10.030;2023-04-03T02:37:16;5.22;;;0.75;;
12745;SDS011;6437;53.686;10.030;2023-04-03T02:39:18;7.50;;;0.45;;
12745;SDS011;6437;53.686;10.030;2023-04-03T02:43:22;4.23;;;0.30;;
12745;SDS011;6437;53.686;10.030;2023-04-03T02:45:24;6.32;;;0.40;;
12745;SDS011;6437;53.686;10.030;2023-04-03T02:47:26;7.90;;;1.45;;
12745;SDS011;6437;53.686;10.030;2023-04-03T02:51:31;12.50;;;2.78;;
12745;SDS011;6437;53.686;10.030;2023-04-03T02:53:36;9.23;;;1.23;;
12745;SDS011;6437;53.686;10.030;2023-04-03T02:55:38;13.07;;;2.13;;
12745;SDS011;6437;53.686;10.030;2023-04-03T02:57:40;11.05;;;1.02;;
12745;SDS011;6437;53.686;10.030;2023-04-03T02:59:42;17.00;;;2.08;;
12745;SDS011;6437;53.686;10.030;2023-04-03T03:01:45;8.05;;;0.75;;
12745;SDS011;6437;53.686;10.030;2023-04-03T03:03:46;6.65;;;0.30;;
12745;SDS011;6437;53.686;10.030;2023-04-03T03:05:48;7.22;;;1.25;;
12745;SDS011;6437;53.686;10.030;2023-04-03T03:07:50;8.52;;;0.52;;
12745;SDS011;6437;53.686;10.030;2023-04-03T03:09:53;10.15;;;0.75;;
12745;SDS011;6437;53.686;10.030;2023-04-03T03:11:55;7.28;;;0.82;;
12745;SDS011;6437;53.686;10.030;2023-04-03T03:13:57;7.47;;;0.80;;
12745;SDS011;6437;53.686;10.030;2023-04-03T03:15:59;5.25;;;0.70;;
12745;SDS011;6437;53.686;10.030;2023-04-03T03:18:01;4.95;;;0.93;;
12745;SDS011;6437;53.686;10.030;2023-04-03T03:20:04;14.00;;;1.17;;
12745;SDS011;6437;53.686;10.030;2023-04-03T03:22:06;6.05;;;0.70;;
12745;SDS011;6437;53.686;10.030;2023-04-03T03:24:08;15.13;;;3.13;;
12745;SDS011;6437;53.686;10.030;2023-04-03T03:26:13;13.13;;;1.15;;
12745;SDS011;6437;53.686;10.030;2023-04-03T03:28:15;9.13;;;1.27;;
12745;SDS011;6437;53.686;10.030;2023-04-03T03:30:18;4.38;;;0.98;;
12745;SDS011;6437;53.686;10.030;2023-04-03T03:32:20;13.05;;;1.30;;
12745;SDS011;6437;53.686;10.030;2023-04-03T03:34:22;10.65;;;1.05;;
12745;SDS011;6437;53.686;10.030;2023-04-03T03:36:24;7.72;;;1.23;;
12745;SDS011;6437;53.686;10.030;2023-04-03T03:38:26;10.00;;;1.27;;
12745;SDS011;6437;53.686;10.030;2023-04-03T03:40:28;7.20;;;1.00;;
12745;SDS011;6437;53.686;10.030;2023-04-03T03:42:32;9.55;;;1.05;;
12745;SDS011;6437;53.686;10.030;2023-04-03T03:44:34;8.02;;;1.20;;
12745;SDS011;6437;53.686;10.030;2023-04-03T03:46:36;5.40;;;0.80;;
12745;SDS011;6437;53.686;10.030;2023-04-03T03:48:38;4.35;;;0.85;;
12745;SDS011;6437;53.686;10.030;2023-04-03T03:50:41;16.13;;;1.17;;
12745;SDS011;6437;53.686;10.030;2023-04-03T03:52:46;10.82;;;1.42;;
12745;SDS011;6437;53.686;10.030;2023-04-03T03:54:49;7.50;;;0.90;;
12745;SDS011;6437;53.686;10.030;2023-04-03T03:58:57;7.95;;;1.02;;
12745;SDS011;6437;53.686;10.030;2023-04-03T04:01:01;5.95;;;0.70;;
12745;SDS011;6437;53.686;10.030;2023-04-03T04:03:03;15.90;;;1.17;;
12745;SDS011;6437;53.686;10.030;2023-04-03T04:07:09;7.45;;;0.32;;
12745;SDS011;6437;53.686;10.030;2023-04-03T04:09:11;11.00;;;1.05;;
12745;SDS011;6437;53.686;10.030;2023-04-03T04:11:16;10.32;;;1.50;;
12745;SDS011;6437;53.686;10.030;2023-04-03T04:15:24;10.68;;;1.15;;
12745;SDS011;6437;53.686;10.030;2023-04-03T04:17:28;15.73;;;2.97;;
12745;SDS011;6437;53.686;10.030;2023-04-03T04:19:30;10.05;;;1.95;;
12745;SDS011;6437;53.686;10.030;2023-04-03T04:21:33;9.60;;;2.20;;
12745;SDS011;6437;53.686;10.030;2023-04-03T04:23:35;20.83;;;8.98;;
12745;SDS011;6437;53.686;10.030;2023-04-03T04:25:37;19.52;;;8.10;;
12745;SDS011;6437;53.686;10.030;2023-04-03T04:27:38;19.08;;;6.00;;
12745;SDS011;6437;53.686;10.030;2023-04-03T04:31:44;13.63;;;2.40;;
12745;SDS011;6437;53.686;10.030;2023-04-03T04:33:46;18.05;;;4.30;;
12745;SDS011;6437;53.686;10.030;2023-04-03T04:35:49;17.63;;;2.22;;
12745;SDS011;6437;53.686;10.030;2023-04-03T04:37:51;6.20;;;0.90;;
12745;SDS011;6437;53.686;10.030;2023-04-03T04:39:53;5.35;;;1.33;;
12745;SDS011;6437;53.686;10.030;2023-04-03T04:41:55;8.75;;;2.17;;
12745;SDS011;6437;53.686;10.030;2023-04-03T04:43:57;8.52;;;2.60;;
12745;SDS011;6437;53.686;10.030;2023-04-03T04:46:00;10.18;;;2.10;;
12745;SDS011;6437;53.686;10.030;2023-04-03T04:48:04;11.75;;;1.38;;
12745;SDS011;6437;53.686;10.030;2023-04-03T04:50:07;6.82;;;1.98;;
12745;SDS011;6437;53.686;10.030;2023-04-03T04:52:09;8.40;;;1.65;;
12745;SDS011;6437;53.686;10.030;2023-04-03T04:54:12;20.80;;;2.22;;
12745;SDS011;6437;53.686;10.030;2023-04-03T04:56:14;15.13;;;2.03;;
12745;SDS011;6437;53.686;10.030;2023-04-03T04:58:18;8.32;;;1.33;;
12745;SDS011;6437;53.686;10.030;2023-04-03T05:00:23;11.63;;;2.03;;
12745;SDS011;6437;53.686;10.030;2023-04-03T05:02:25;14.38;;;2.28;;
12745;SDS011;6437;53.686;10.030;2023-04-03T05:04:29;12.88;;;1.67;;
12745;SDS011;6437;53.686;10.030;2023-04-03T05:06:31;6.30;;;1.77;;
12745;SDS011;6437;53.686;10.030;2023-04-03T05:08:35;16.15;;;2.05;;
12745;SDS011;6437;53.686;10.030;2023-04-03T05:10:36;8.63;;;2.42;;
12745;SDS011;6437;53.686;10.030;2023-04-03T05:12:40;8.85;;;1.52;;
12745;SDS011;6437;53.686;10.030;2023-04-03T05:14:42;14.80;;;1.45;;
12745;SDS011;6437;53.686;10.030;2023-04-03T05:16:44;11.13;;;3.00;;
12745;SDS011;6437;53.686;10.030;2023-04-03T05:18:47;10.07;;;2.97;;
12745;SDS011;6437;53.686;10.030;2023-04-03T05:20:50;11.27;;;1.77;;
12745;SDS011;6437;53.686;10.030;2023-04-03T05:22:52;10.02;;;2.25;;
12745;SDS011;6437;53.686;10.030;2023-04-03T05:24:54;8.55;;;1.50;;
12745;SDS011;6437;53.686;10.030;2023-04-03T05:26:56;10.82;;;2.90;;
12745;SDS011;6437;53.686;10.030;2023-04-03T05:28:58;13.38;;;2.13;;
12745;SDS011;6437;53.686;10.030;2023-04-03T05:31:00;7.65;;;2.08;;
12745;SDS011;6437;53.686;10.030;2023-04-03T05:33:02;8.85;;;2.05;;
12745;SDS011;6437;53.686;10.030;2023-04-03T05:35:15;13.85;;;2.25;;
12745;SDS011;6437;53.686;10.030;2023-04-03T05:37:22;17.65;;;1.45;;
12745;SDS011;6437;53.686;10.030;2023-04-03T05:39:24;8.98;;;1.05;;
12745;SDS011;6437;53.686;10.030;2023-04-03T05:41:25;14.43;;;1.27;;
12745;SDS011;6437;53.686;10.030;2023-04-03T05:43:31;7.18;;;1.27;;
12745;SDS011;6437;53.686;10.030;2023-04-03T05:45:37;8.07;;;0.98;;
12745;SDS011;6437;53.686;10.030;2023-04-03T05:47:39;10.65;;;1.02;;
12745;SDS011;6437;53.686;10.030;2023-04-03T05:49:41;10.48;;;0.70;;
12745;SDS011;6437;53.686;10.030;2023-04-03T05:51:45;7.80;;;0.95;;
12745;SDS011;6437;53.686;10.030;2023-04-03T05:53:50;7.72;;;1.17;;
12745;SDS011;6437;53.686;10.030;2023-04-03T05:56:01;3.80;;;0.55;;
12745;SDS011;6437;53.686;10.030;2023-04-03T05:58:02;6.00;;;0.85;;
12745;SDS011;6437;53.686;10.030;2023-04-03T06:00:05;8.43;;;1.00;;
12745;SDS011;6437;53.686;10.030;2023-04-03T06:02:10;9.57;;;1.40;;
12745;SDS011;6437;53.686;10.030;2023-04-03T06:04:13;18.23;;;1.85;;
12745;SDS011;6437;53.686;10.030;2023-04-03T06:06:16;6.05;;;1.10;;
12745;SDS011;6437;53.686;10.030;2023-04-03T06:08:22;10.40;;;1.00;;
12745;SDS011;6437;53.686;10.030;2023-04-03T06:10:30;6.28;;;1.10;;
12745;SDS011;6437;53.686;10.030;2023-04-03T06:12:35;8.82;;;0.73;;
12745;SDS011;6437;53.686;10.030;2023-04-03T06:14:50;11.50;;;1.45;;
12745;SDS011;6437;53.686;10.030;2023-04-03T06:18:55;5.68;;;0.45;;
12745;SDS011;6437;53.686;10.030;2023-04-03T06:20:57;18.33;;;1.10;;
12745;SDS011;6437;53.686;10.030;2023-04-03T06:23:00;9.95;;;1.02;;
12745;SDS011;6437;53.686;10.030;2023-04-03T06:25:02;11.80;;;2.40;;
12745;SDS011;6437;53.686;10.030;2023-04-03T06:27:06;7.50;;;0.82;;
12745;SDS011;6437;53.686;10.030;2023-04-03T06:29:08;7.38;;;0.80;;
12745;SDS011;6437;53.686;10.030;2023-04-03T06:31:10;12.93;;;1.17;;
12745;SDS011;6437;53.686;10.030;2023-04-03T06:33:12;14.68;;;1.38;;
12745;SDS011;6437;53.686;10.030;2023-04-03T06:35:14;6.10;;;1.08;;
12745;SDS011;6437;53.686;10.030;2023-04-03T06:37:16;7.57;;;1.13;;
12745;SDS011;6437;53.686;10.030;2023-04-03T06:39:21;2.28;;;0.50;;
12745;SDS011;6437;53.686;10.030;2023-04-03T06:41:23;9.23;;;0.60;;
12745;SDS011;6437;53.686;10.030;2023-04-03T06:43:27;13.98;;;0.98;;
12745;SDS011;6437;53.686;10.030;2023-04-03T06:45:31;9.85;;;0.60;;
12745;SDS011;6437;53.686;10.030;2023-04-03T06:47:32;10.60;;;0.98;;
12745;SDS011;6437;53.686;10.030;2023-04-03T06:49:34;8.27;;;0.60;;
12745;SDS011;6437;53.686;10.030;2023-04-03T06:53:38;12.82;;;1.00;;
12745;SDS011;6437;53.686;10.030;2023-04-03T06:55:40;6.75;;;0.50;;
12745;SDS011;6437;53.686;10.030;2023-04-03T06:57:43;13.57;;;0.50;;
12745;SDS011;6437;53.686;10.030;2023-04-03T07:01:49;13.07;;;0.65;;
12745;SDS011;6437;53.686;10.030;2023-04-03T07:03:51;5.93;;;0.60;;
12745;SDS011;6437;53.686;10.030;2023-04-03T07:05:54;5.63;;;0.75;;
12745;SDS011;6437;53.686;10.030;2023-04-03T07:07:56;5.60;;;0.45;;
12745;SDS011;6437;53.686;10.030;2023-04-03T07:09:58;8.50;;;0.57;;
12745;SDS011;6437;53.686;10.030;2023-04-03T07:12:00;8.68;;;0.52;;
12745;SDS011;6437;53.686;10.030;2023-04-03T07:14:02;15.15;;;0.68;;
12745;SDS011;6437;53.686;10.030;2023-04-03T07:16:07;9.95;;;0.55;;
12745;SDS011;6437;53.686;10.030;2023-04-03T07:18:09;12.52;;;0.40;;
12745;SDS011;6437;53.686;10.030;2023-04-03T07:20:11;9.25;;;0.30;;
12745;SDS011;6437;53.686;10.030;2023-04-03T07:22:15;10.35;;;0.52;;
12745;SDS011;6437;53.686;10.030;2023-04-03T07:24:17;9.77;;;0.73;;
12745;SDS011;6437;53.686;10.030;2023-04-03T07:28:22;4.20;;;0.50;;
12745;SDS011;6437;53.686;10.030;2023-04-03T07:30:25;10.70;;;0.50;;
12745;SDS011;6437;53.686;10.030;2023-04-03T07:32:28;8.82;;;0.88;;
12745;SDS011;6437;53.686;10.030;2023-04-03T07:34:31;11.98;;;0.80;;
12745;SDS011;6437;53.686;10.030;2023-04-03T07:38:36;6.40;;;0.60;;
12745;SDS011;6437;53.686;10.030;2023-04-03T07:40:38;4.10;;;0.40;;
12745;SDS011;6437;53.686;10.030;2023-04-03T07:42:41;3.40;;;0.20;;
12745;SDS011;6437;53.686;10.030;2023-04-03T07:44:43;5.95;;;0.25;;
12745;SDS011;6437;53.686;10.030;2023-04-03T07:46:44;8.27;;;0.88;;
12745;SDS011;6437;53.686;10.030;2023-04-03T07:48:48;5.95;;;0.30;;
12745;SDS011;6437;53.686;10.030;2023-04-03T07:50:50;2.60;;;0.30;;
12745;SDS011;6437;53.686;10.030;2023-04-03T07:52:55;7.38;;;0.68;;
12745;SDS011;6437;53.686;10.030;2023-04-03T07:54:57;5.35;;;0.55;;
12745;SDS011;6437;53.686;10.030;2023-04-03T07:56:59;11.38;;;0.35;;
12745;SDS011;6437;53.686;10.030;2023-04-03T07:59:01;7.22;;;0.30;;
12745;SDS011;6437;53.686;10.030;2023-04-03T08:03:06;7.68;;;0.60;;
12745;SDS011;6437;53.686;10.030;2023-04-03T08:05:12;5.75;;;0.70;;
12745;SDS011;6437;53.686;10.030;2023-04-03T08:07:14;4.45;;;0.47;;
12745;SDS011;6437;53.686;10.030;2023-04-03T08:09:16;9.02;;;1.05;;
12745;SDS011;6437;53.686;10.030;2023-04-03T08:11:25;7.75;;;0.50;;
12745;SDS011;6437;53.686;10.030;2023-04-03T08:13:27;5.18;;;0.68;;
12745;SDS011;6437;53.686;10.030;2023-04-03T08:15:29;5.20;;;0.88;;
12745;SDS011;6437;53.686;10.030;2023-04-03T08:19:33;7.05;;;0.35;;
12745;SDS011;6437;53.686;10.030;2023-04-03T08:21:38;4.97;;;0.88;;
12745;SDS011;6437;53.686;10.030;2023-04-03T08:23:41;5.30;;;0.30;;
12745;SDS011;6437;53.686;10.030;2023-04-03T08:28:40;4.63;;;0.50;;
12745;SDS011;6437;53.686;10.030;2023-04-03T08:31:59;12.40;;;2.55;;
12745;SDS011;6437;53.686;10.030;2023-04-03T08:33:37;8.80;;;1.10;;
12745;SDS011;6437;53.686;10.030;2023-04-03T08:35:40;10.65;;;0.60;;
12745;SDS011;6437;53.686;10.030;2023-04-03T08:37:46;7.25;;;0.55;;
12745;SDS011;6437;53.686;10.030;2023-04-03T08:39:48;7.80;;;0.98;;
12745;SDS011;6437;53.686;10.030;2023-04-03T08:41:50;4.13;;;0.55;;
12745;SDS011;6437;53.686;10.030;2023-04-03T08:44:07;3.55;;;0.30;;
12745;SDS011;6437;53.686;10.030;2023-04-03T08:46:16;10.93;;;0.88;;
12745;SDS011;6437;53.686;10.030;2023-04-03T08:48:21;8.65;;;0.57;;
12745;SDS011;6437;53.686;10.030;2023-04-03T08:50:26;9.80;;;0.50;;
12745;SDS011;6437;53.686;10.030;2023-04-03T08:52:35;11.27;;;0.43;;
12745;SDS011;6437;53.686;10.030;2023-04-03T08:54:50;4.80;;;0.30;;
12745;SDS011;6437;53.686;10.030;2023-04-03T08:56:53;6.43;;;0.40;;
12745;SDS011;6437;53.686;10.030;2023-04-03T08:58:58;4.35;;;0.30;;
12745;SDS011;6437;53.686;10.030;2023-04-03T09:01:05;5.30;;;0.40;;
12745;SDS011;6437;53.686;10.030;2023-04-03T09:03:16;4.65;;;0.77;;
12745;SDS011;6437;53.686;10.030;2023-04-03T09:05:24;5.03;;;0.40;;
12745;SDS011;6437;53.686;10.030;2023-04-03T09:07:38;3.65;;;0.20;;
12745;SDS011;6437;53.686;10.030;2023-04-03T09:09:44;8.02;;;0.30;;
12745;SDS011;6437;53.686;10.030;2023-04-03T09:11:54;4.40;;;0.20;;
12745;SDS011;6437;53.686;10.030;2023-04-03T09:14:02;7.40;;;1.10;;
12745;SDS011;6437;53.686;10.030;2023-04-03T09:16:16;6.35;;;0.77;;
12745;SDS011;6437;53.686;10.030;2023-04-03T09:18:27;1.73;;;0.30;;
12745;SDS011;6437;53.686;10.030;2023-04-03T09:20:41;5.65;;;0.30;;
12745;SDS011;6437;53.686;10.030;2023-04-03T09:22:47;3.55;;;0.45;;
12745;SDS011;6437;53.686;10.030;2023-04-03T09:24:52;3.22;;;0.22;;
12745;SDS011;6437;53.686;10.030;2023-04-03T09:27:03;4.40;;;0.30;;
12745;SDS011;6437;53.686;10.030;2023-04-03T09:29:15;7.13;;;0.30;;
12745;SDS011;6437;53.686;10.030;2023-04-03T09:31:21;4.90;;;0.50;;
12745;SDS011;6437;53.686;10.030;2023-04-03T09:33:25;5.68;;;0.20;;
12745;SDS011;6437;53.686;10.030;2023-04-03T09:35:28;4.78;;;0.50;;
12745;SDS011;6437;53.686;10.030;2023-04-03T09:37:39;3.83;;;0.20;;
12745;SDS011;6437;53.686;10.030;2023-04-03T09:39:49;1.65;;;0.17;;
12745;SDS011;6437;53.686;10.030;2023-04-03T09:41:57;4.82;;;0.30;;
12745;SDS011;6437;53.686;10.030;2023-04-03T09:44:02;4.57;;;0.20;;
12745;SDS011;6437;53.686;10.030;2023-04-03T09:46:24;11.70;;;0.55;;
12745;SDS011;6437;53.686;10.030;2023-04-03T09:48:30;4.82;;;0.60;;
12745;SDS011;6437;53.686;10.030;2023-04-03T09:50:32;7.03;;;0.63;;
12745;SDS011;6437;53.686;10.030;2023-04-03T09:52:35;3.92;;;0.30;;
12745;SDS011;6437;53.686;10.030;2023-04-03T09:54:37;6.43;;;0.40;;
12745;SDS011;6437;53.686;10.030;2023-04-03T09:56:42;4.07;;;0.80;;
12745;SDS011;6437;53.686;10.030;2023-04-03T09:58:51;5.50;;;0.40;;
12745;SDS011;6437;53.686;10.030;2023-04-03T10:01:24;3.70;;;0.40;;
12745;SDS011;6437;53.686;10.030;2023-04-03T10:03:34;5.10;;;0.30;;
12745;SDS011;6437;53.686;10.030;2023-04-03T10:05:39;2.58;;;0.30;;
12745;SDS011;6437;53.686;10.030;2023-04-03T10:07:42;2.38;;;0.30;;
12745;SDS011;6437;53.686;10.030;2023-04-03T10:12:02;3.55;;;0.22;;
12745;SDS011;6437;53.686;10.030;2023-04-03T10:14:15;2.58;;;0.45;;
12745;SDS011;6437;53.686;10.030;2023-04-03T10:18:27;3.67;;;0.40;;
12745;SDS011;6437;53.686;10.030;2023-04-03T10:20:34;3.58;;;0.30;;
12745;SDS011;6437;53.686;10.030;2023-04-03T10:22:41;2.90;;;0.45;;
12745;SDS011;6437;53.686;10.030;2023-04-03T10:24:52;1.15;;;0.30;;
12745;SDS011;6437;53.686;10.030;2023-04-03T10:27:03;1.33;;;0.40;;
12745;SDS011;6437;53.686;10.030;2023-04-03T10:29:13;4.22;;;0.40;;
12745;SDS011;6437;53.686;10.030;2023-04-03T10:31:24;8.73;;;0.98;;
12745;SDS011;6437;53.686;10.030;2023-04-03T10:33:37;6.50;;;0.50;;
12745;SDS011;6437;53.686;10.030;2023-04-03T10:35:49;7.55;;;0.40;;
12745;SDS011;6437;53.686;10.030;2023-04-03T10:38:03;5.05;;;0.30;;
12745;SDS011;6437;53.686;10.030;2023-04-03T10:40:14;4.25;;;0.60;;
12745;SDS011;6437;53.686;10.030;2023-04-03T10:42:25;3.75;;;0.50;;
12745;SDS011;6437;53.686;10.030;2023-04-03T10:44:40;5.78;;;0.30;;
12745;SDS011;6437;53.686;10.030;2023-04-03T10:46:52;2.75;;;0.40;;
12745;SDS011;6437;53.686;10.030;2023-04-03T10:49:01;6.43;;;0.65;;
12745;SDS011;6437;53.686;10.030;2023-04-03T10:51:19;4.32;;;0.50;;
12745;SDS011;6437;53.686;10.030;2023-04-03T10:53:28;3.03;;;0.20;;
12745;SDS011;6437;53.686;10.030;2023-04-03T10:55:36;8.23;;;0.40;;
12745;SDS011;6437;53.686;10.030;2023-04-03T10:57:42;3.72;;;0.50;;
12745;SDS011;6437;53.686;10.030;2023-04-03T10:59:47;9.77;;;0.40;;
12745;SDS011;6437;53.686;10.030;2023-04-03T11:01:53;3.80;;;0.50;;
12745;SDS011;6437;53.686;10.030;2023-04-03T11:03:59;2.55;;;0.30;;
12745;SDS011;6437;53.686;10.030;2023-04-03T11:06:05;5.20;;;0.65;;
12745;SDS011;6437;53.686;10.030;2023-04-03T11:08:15;7.57;;;0.50;;
12745;SDS011;6437;53.686;10.030;2023-04-03T11:10:28;1.80;;;0.40;;
12745;SDS011;6437;53.686;10.030;2023-04-03T11:12:38;2.55;;;0.30;;
12745;SDS011;6437;53.686;10.030;2023-04-03T11:14:43;2.00;;;0.30;;
12745;SDS011;6437;53.686;10.030;2023-04-03T11:16:53;1.45;;;0.30;;
12745;SDS011;6437;53.686;10.030;2023-04-03T11:21:12;2.55;;;0.30;;
12745;SDS011;6437;53.686;10.030;2023-04-03T11:23:21;8.85;;;0.52;;
12745;SDS011;6437;53.686;10.030;2023-04-03T11:25:31;4.13;;;0.50;;
12745;SDS011;6437;53.686;10.030;2023-04-03T11:27:38;5.20;;;0.85;;
12745;SDS011;6437;53.686;10.030;2023-04-03T11:29:43;6.40;;;0.93;;
12745;SDS011;6437;53.686;10.030;2023-04-03T11:31:55;5.30;;;0.30;;
12745;SDS011;6437;53.686;10.030;2023-04-03T11:34:21;6.55;;;0.73;;
12745;SDS011;6437;53.686;10.030;2023-04-03T11:36:35;1.25;;;0.30;;
12745;SDS011;6437;53.686;10.030;2023-04-03T11:38:43;5.50;;;0.40;;
12745;SDS011;6437;53.686;10.030;2023-04-03T11:40:47;3.60;;;0.30;;
12745;SDS011;6437;53.686;10.030;2023-04-03T11:42:51;2.50;;;0.40;;
12745;SDS011;6437;53.686;10.030;2023-04-03T11:47:45;1.52;;;0.40;;
12745;SDS011;6437;53.686;10.030;2023-04-03T11:49:53;2.50;;;0.30;;
12745;SDS011;6437;53.686;10.030;2023-04-03T11:51:59;5.18;;;0.40;;
12745;SDS011;6437;53.686;10.030;2023-04-03T11:56:43;3.15;;;0.52;;
12745;SDS011;6437;53.686;10.030;2023-04-03T11:58:50;3.53;;;0.47;;
12745;SDS011;6437;53.686;10.030;2023-04-03T12:08:56;2.80;;;0.55;;
12745;SDS011;6437;53.686;10.030;2023-04-03T12:11:14;1.38;;;0.40;;
12745;SDS011;6437;53.686;10.030;2023-04-03T12:13:22;2.20;;;0.30;;
12745;SDS011;6437;53.686;10.030;2023-04-03T12:17:52;5.95;;;0.40;;
12745;SDS011;6437;53.686;10.030;2023-04-03T12:19:56;5.22;;;0.47;;
12745;SDS011;6437;53.686;10.030;2023-04-03T12:22:08;3.50;;;0.43;;
12745;SDS011;6437;53.686;10.030;2023-04-03T12:24:24;6.32;;;0.43;;
12745;SDS011;6437;53.686;10.030;2023-04-03T12:26:28;7.45;;;0.40;;
12745;SDS011;6437;53.686;10.030;2023-04-03T12:28:37;4.30;;;0.40;;
12745;SDS011;6437;53.686;10.030;2023-04-03T12:30:40;6.90;;;0.40;;
12745;SDS011;6437;53.686;10.030;2023-04-03T12:32:46;2.13;;;0.38;;
12745;SDS011;6437;53.686;10.030;2023-04-03T12:37:07;4.15;;;0.45;;
12745;SDS011;6437;53.686;10.030;2023-04-03T12:41:50;3.30;;;0.40;;
12745;SDS011;6437;53.686;10.030;2023-04-03T12:44:13;6.95;;;0.70;;
12745;SDS011;6437;53.686;10.030;2023-04-03T12:46:42;2.33;;;0.32;;
12745;SDS011;6437;53.686;10.030;2023-04-03T12:48:49;4.15;;;0.60;;
12745;SDS011;6437;53.686;10.030;2023-04-03T12:50:58;0.50;;;0.20;;
12745;SDS011;6437;53.686;10.030;2023-04-03T12:53:05;2.55;;;0.40;;
12745;SDS011;6437;53.686;10.030;2023-04-03T12:55:15;6.10;;;0.95;;
12745;SDS011;6437;53.686;10.030;2023-04-03T12:57:20;5.15;;;0.60;;
12745;SDS011;6437;53.686;10.030;2023-04-03T12:59:25;4.57;;;0.40;;
12745;SDS011;6437;53.686;10.030;2023-04-03T13:01:27;5.68;;;0.60;;
12745;SDS011;6437;53.686;10.030;2023-04-03T13:03:29;4.75;;;0.90;;
12745;SDS011;6437;53.686;10.030;2023-04-03T13:05:34;2.58;;;0.38;;
12745;SDS011;6437;53.686;10.030;2023-04-03T13:09:43;3.72;;;0.30;;
12745;SDS011;6437;53.686;10.030;2023-04-03T13:11:56;2.55;;;0.65;;
12745;SDS011;6437;53.686;10.030;2023-04-03T13:14:04;8.48;;;0.45;;
12745;SDS011;6437;53.686;10.030;2023-04-03T13:16:18;4.78;;;0.70;;
12745;SDS011;6437;53.686;10.030;2023-04-03T13:18:21;6.00;;;0.50;;
12745;SDS011;6437;53.686;10.030;2023-04-03T13:20:26;2.67;;;0.40;;
12745;SDS011;6437;53.686;10.030;2023-04-03T13:22:30;3.42;;;0.40;;
12745;SDS011;6437;53.686;10.030;2023-04-03T13:24:40;3.25;;;0.70;;
12745;SDS011;6437;53.686;10.030;2023-04-03T13:26:42;4.18;;;0.40;;
12745;SDS011;6437;53.686;10.030;2023-04-03T13:28:45;1.70;;;0.43;;
12745;SDS011;6437;53.686;10.030;2023-04-03T13:30:56;2.20;;;0.60;;
12745;SDS011;6437;53.686;10.030;2023-04-03T13:33:05;4.43;;;0.50;;
12745;SDS011;6437;53.686;10.030;2023-04-03T13:35:24;5.72;;;0.57;;
12745;SDS011;6437;53.686;10.030;2023-04-03T13:37:29;3.75;;;0.75;;
12745;SDS011;6437;53.686;10.030;2023-04-03T13:39:33;8.07;;;0.70;;
12745;SDS011;6437;53.686;10.030;2023-04-03T13:41:46;4.35;;;1.02;;
12745;SDS011;6437;53.686;10.030;2023-04-03T13:43:54;5.13;;;0.63;;
12745;SDS011;6437;53.686;10.030;2023-04-03T13:46:01;3.70;;;0.50;;